To NAV CANADA Home Page Login to a new session Search on AWWS site Disclaimer Vers la page française équivalente Tips FAQ What's new on the site To the Forecasts and Observations / NOTAM section To "File a Flight Plan" website Publications and other links Update of the User's profile FIC Telephone Numbers My Weather Data Folder Route Weather Data Regional Weather Data Local Weather Data To the Forecasts and Observations / NOTAM section
Request Generated 10/20/2021 at 20:05:14 UTC . Weather information available at that time is displayed.

METAR/TAF

GOOSE BAY/NL    

METAR CYYR 202000Z 05010KT 5SM -DZ BR BKN004 OVC010 07/06 A2987 RMK SF6SF2 VIS NW-N 12 SLP119=
SPECI CYYR 201949Z 05011KT 3SM -DZ BR BKN004 OVC008 07/06 A2988 RMK SF7SF1 VIS N 12 SLP120=
SPECI CYYR 201944Z 05011KT 2SM -DZ BR BKN004 OVC008 07/06 A2988 RMK SF6SF2 VIS N 10 SLP120=
SPECI CYYR 201936Z 05011G16KT 1 1/2SM -DZ BR BKN004 OVC008 07/06 A2988 RMK SF7SF1 SLP121=
SPECI CYYR 201933Z 05011G16KT 2 1/2SM -DZ BR BKN005 OVC009 07/06 A2988 RMK SF7SF1 SLP121=
SPECI CYYR 201925Z 05013KT 4SM -SHRA BR BKN006 OVC014 07/06 A2988 RMK SF7SF1 VIS HIER N SLP122=
METAR CYYR 201900Z 06014G19KT 6SM -SHRA BR BKN008 OVC014 07/06 A2989 RMK SF6SF2 VIS LWR W SLP123=
SPECI CYYR 201842Z 05015G20KT 10SM -SHRA BKN008 OVC014 07/06 A2989 RMK SF5SF3 SLP123=
METAR CYYR 201800Z 04013KT 12SM FEW008 BKN012 OVC033 07/06 A2989 RMK SF1SF5SC3 SH DIST ALQDS SLP124=

TAF AMD CYYR 201950Z 2019/2118 05010G20KT 6SM -SHRA BR SCT004 OVC012
TEMPO 2019/2106 1SM -DZ BR BKN004 OVC008
FM210600 02010KT P6SM SCT004 OVC012 TEMPO 2106/2108 SCT012 BKN015
FM210800 02010KT 6SM BR BKN015 OVC030
BECMG 2111/2113 36010G20KT
FM211300 36010G20KT P6SM BKN025
RMK NXT FCST BY 210000Z=
Your time UTC time
Weather data provided by Environment Canada and NAV CANADA